Time;durP1;ratioP1;P1;durP2;ratioP2;P2;SDS_P1;SDS_P2;PMS_P1;PMS_P2;Temp;Humidity;BMP_temperature;BMP_pressure;BME280_temperature;BME280_humidity;BME280_pressure;Samples;Min_cycle;Max_cycle;Signal;HPM_P1;HPM_P2
2023/11/12 00:01:11;;;;;;;2.25;1.70;;;;;;;5.82;73.96;94008.28;4205273;28;20040;-66
2023/11/12 00:03:13;;;;;;;2.03;1.70;;;;;;;5.86;73.83;94014.84;4204951;28;20056;-68
2023/11/12 00:05:17;;;;;;;3.67;1.83;;;;;;;5.87;73.41;94013.84;4201941;28;20125;-70
2023/11/12 00:07:19;;;;;;;2.60;1.90;;;;;;;5.96;73.05;94013.03;4194290;28;20320;-69
2023/11/12 00:09:21;;;;;;;3.08;1.92;;;;;;;5.85;73.31;94023.59;4192478;28;20045;-68
2023/11/12 00:11:25;;;;;;;2.78;1.85;;;;;;;5.90;72.84;94013.59;4211852;28;20047;-67
2023/11/12 00:13:29;;;;;;;2.42;1.80;;;;;;;5.89;72.56;94025.78;4193521;28;20044;-69
2023/11/12 00:15:31;;;;;;;4.25;1.90;;;;;;;5.82;73.07;94016.09;4177679;28;20052;-68
2023/11/12 00:17:37;;;;;;;4.28;1.90;;;;;;;5.81;73.35;94030.03;4210689;28;20048;-67
2023/11/12 00:19:40;;;;;;;3.30;1.95;;;;;;;5.78;73.41;94030.34;4202832;28;20419;-68
2023/11/12 00:21:43;;;;;;;3.97;2.00;;;;;;;5.77;73.58;94032.13;4204320;28;20097;-66
2023/11/12 00:23:45;;;;;;;3.38;2.03;;;;;;;5.76;73.23;94030.47;4199188;28;20135;-68
2023/11/12 00:25:48;;;;;;;3.88;2.38;;;;;;;5.95;72.83;94024.38;4207025;28;20561;-70
2023/11/12 00:27:49;;;;;;;3.20;2.35;;;;;;;6.13;72.92;94030.41;4166581;28;20231;-68
2023/11/12 00:29:51;;;;;;;3.65;2.20;;;;;;;6.27;71.61;94025.66;4192319;28;20044;-68
2023/11/12 00:31:53;;;;;;;3.85;2.15;;;;;;;6.28;71.02;94028.13;4204676;28;20102;-67
2023/11/12 00:33:55;;;;;;;3.00;1.90;;;;;;;6.28;71.23;94020.31;4204997;28;20182;-66
2023/11/12 00:35:57;;;;;;;5.13;1.85;;;;;;;6.47;71.01;94019.31;4211010;28;20055;-68
2023/11/12 00:37:59;;;;;;;2.72;1.88;;;;;;;6.33;70.98;94022.47;4202117;28;20145;-67
2023/11/12 00:40:02;;;;;;;2.00;1.40;;;;;;;6.14;71.42;94024.25;4190306;28;20095;-68
2023/11/12 00:42:05;;;;;;;2.60;1.98;;;;;;;6.18;72.03;94021.34;4210366;28;20105;-67
2023/11/12 00:44:10;;;;;;;3.70;2.22;;;;;;;6.09;71.52;94020.47;4211223;28;20044;-68
2023/11/12 00:46:12;;;;;;;3.88;1.90;;;;;;;6.02;72.13;94017.63;4198720;28;20044;-69
2023/11/12 00:48:16;;;;;;;2.92;1.90;;;;;;;5.98;72.62;94018.06;4208971;28;20082;-67
2023/11/12 00:50:18;;;;;;;3.88;2.38;;;;;;;5.86;72.76;94014.84;4203598;28;20045;-65
2023/11/12 00:52:20;;;;;;;4.68;2.00;;;;;;;5.98;72.83;94018.06;4204812;28;20055;-66
2023/11/12 00:54:22;;;;;;;3.20;2.20;;;;;;;5.98;72.96;94013.69;4207329;28;20048;-65
2023/11/12 00:56:25;;;;;;;2.50;1.90;;;;;;;5.87;73.22;94012.09;4206450;28;20075;-68
2023/11/12 00:58:27;;;;;;;3.75;1.80;;;;;;;5.86;73.11;94007.84;4204083;28;20135;-69
2023/11/12 01:00:30;;;;;;;2.55;1.70;;;;;;;5.95;73.13;94020.00;4203929;28;20054;-68
2023/11/12 01:02:32;;;;;;;2.30;1.67;;;;;;;6.14;72.59;94019.03;4205785;28;20056;-66
2023/11/12 01:04:34;;;;;;;2.40;1.80;;;;;;;6.38;71.99;94011.59;4208481;28;20148;-67
2023/11/12 01:06:36;;;;;;;2.85;2.03;;;;;;;6.57;71.57;94004.44;4211049;28;20514;-69
2023/11/12 01:08:39;;;;;;;4.55;2.00;;;;;;;6.76;70.56;94005.22;4201414;28;20550;-67
2023/11/12 01:10:41;;;;;;;4.37;2.07;;;;;;;6.88;69.88;94003.16;4185794;28;20625;-69
2023/11/12 01:12:43;;;;;;;4.45;2.10;;;;;;;7.03;69.80;94003.41;4206589;28;20143;-68
2023/11/12 01:14:46;;;;;;;2.85;1.88;;;;;;;7.05;68.86;94004.88;4207888;28;20052;-66
2023/11/12 01:16:49;;;;;;;4.60;2.40;;;;;;;7.06;68.48;94003.13;4213098;28;20149;-69
2023/11/12 01:18:52;;;;;;;4.35;2.08;;;;;;;7.10;68.41;94005.25;4209620;28;20071;-67
2023/11/12 01:20:54;;;;;;;2.95;1.75;;;;;;;7.07;68.08;94007.34;4206662;28;20060;-68
2023/11/12 01:22:56;;;;;;;2.65;1.92;;;;;;;6.90;68.70;94015.06;4207648;28;20051;-68
2023/11/12 01:24:58;;;;;;;2.10;1.50;;;;;;;6.89;68.94;94010.03;4211537;28;20045;-67
2023/11/12 01:27:00;;;;;;;3.10;1.75;;;;;;;6.95;68.78;94015.44;4186637;28;20069;-68
2023/11/12 01:29:02;;;;;;;3.00;1.83;;;;;;;6.80;69.34;94014.34;4198698;28;20072;-68
2023/11/12 01:31:04;;;;;;;2.85;1.98;;;;;;;6.74;69.38;94005.34;4212768;28;20048;-68
2023/11/12 01:33:06;;;;;;;2.15;1.50;;;;;;;6.62;69.49;94000.56;4201743;28;20122;-68
2023/11/12 01:35:09;;;;;;;2.10;1.70;;;;;;;6.33;70.59;94006.84;4213606;28;20138;-68
2023/11/12 01:37:11;;;;;;;2.95;1.92;;;;;;;6.48;70.52;94005.34;4212395;28;20123;-69
2023/11/12 01:39:13;;;;;;;2.80;2.00;;;;;;;6.69;70.19;94001.56;4211583;28;20048;-68
2023/11/12 01:41:16;;;;;;;2.88;2.30;;;;;;;6.84;69.29;94005.28;4201523;28;20048;-70
2023/11/12 01:43:19;;;;;;;2.90;2.25;;;;;;;6.97;68.76;94005.69;4207449;28;20048;-70
2023/11/12 01:45:21;;;;;;;5.57;3.97;;;;;;;7.11;68.51;94006.06;4206679;28;20058;-68
2023/11/12 01:47:22;;;;;;;6.45;3.70;;;;;;;7.09;68.36;94015.81;4202678;28;20057;-68
2023/11/12 01:49:25;;;;;;;3.78;2.92;;;;;;;7.11;68.70;94006.88;4199188;28;20455;-67
2023/11/12 01:51:29;;;;;;;4.03;2.70;;;;;;;7.09;68.73;93997.59;4212104;28;20457;-68
2023/11/12 01:53:34;;;;;;;4.65;2.40;;;;;;;7.13;69.23;93998.91;4213016;28;20074;-68
2023/11/12 01:55:37;;;;;;;5.70;2.83;;;;;;;7.21;68.30;94005.97;4208121;28;20052;-68
2023/11/12 01:57:39;;;;;;;4.15;2.75;;;;;;;7.24;68.02;94006.44;4211714;28;20082;-68
2023/11/12 01:59:41;;;;;;;3.70;2.70;;;;;;;7.32;68.54;94011.72;4209498;28;20554;-69
2023/11/12 02:01:43;;;;;;;5.38;2.75;;;;;;;7.38;68.25;94012.88;4197361;28;20052;-67
2023/11/12 02:03:46;;;;;;;3.92;2.65;;;;;;;7.39;68.07;94007.50;4205593;28;20511;-68
2023/11/12 02:05:50;;;;;;;4.35;3.08;;;;;;;7.43;68.04;94010.63;4211191;28;20075;-69
2023/11/12 02:07:53;;;;;;;4.03;2.75;;;;;;;7.43;68.21;94002.78;4210981;28;20052;-69
2023/11/12 02:10:07;;;;;;;3.95;2.88;;;;;;;7.46;67.66;94001.66;4204284;28;20356;-68
2023/11/12 02:12:09;;;;;;;4.28;2.97;;;;;;;7.48;67.12;94002.31;4213081;28;20055;-68
2023/11/12 02:14:14;;;;;;;5.18;3.13;;;;;;;7.47;67.34;94011.13;4213492;28;20052;-67
2023/11/12 02:16:16;;;;;;;5.43;3.53;;;;;;;7.45;67.34;94013.88;4227433;28;20113;-67
2023/11/12 02:18:18;;;;;;;5.75;3.47;;;;;;;7.44;67.20;94009.63;4188184;28;20056;-66
2023/11/12 02:20:20;;;;;;;5.47;3.15;;;;;;;7.42;67.52;94018.59;4212808;28;20058;-67
2023/11/12 02:22:23;;;;;;;4.32;3.33;;;;;;;7.36;67.61;94009.63;4208673;28;20095;-69
2023/11/12 02:24:24;;;;;;;4.50;3.17;;;;;;;7.42;67.92;94008.16;4207868;28;20044;-67
2023/11/12 02:26:26;;;;;;;5.82;3.00;;;;;;;7.43;67.56;94012.41;4212176;28;20144;-69
2023/11/12 02:28:28;;;;;;;4.25;2.92;;;;;;;7.45;67.54;94005.25;4211780;28;20063;-69
2023/11/12 02:30:30;;;;;;;5.43;3.17;;;;;;;7.46;67.84;94012.91;4198882;28;20457;-69
2023/11/12 02:32:34;;;;;;;4.70;3.35;;;;;;;7.43;67.65;94010.63;4191973;28;20132;-69
2023/11/12 02:34:37;;;;;;;5.03;3.25;;;;;;;7.41;67.26;94011.75;4207362;28;20315;-68
2023/11/12 02:36:40;;;;;;;4.47;3.38;;;;;;;7.43;67.25;94009.81;4203607;28;20518;-67
2023/11/12 02:38:42;;;;;;;5.88;3.58;;;;;;;7.45;67.22;94015.69;4208627;28;20050;-69
2023/11/12 02:40:46;;;;;;;5.90;3.55;;;;;;;7.46;67.30;94010.28;4200083;28;20510;-67
2023/11/12 02:42:48;;;;;;;5.18;3.35;;;;;;;7.47;67.50;94017.16;4182720;28;20040;-68
2023/11/12 02:44:50;;;;;;;7.80;3.25;;;;;;;7.43;67.24;94002.00;4201790;28;20059;-68
2023/11/12 02:46:51;;;;;;;4.07;3.17;;;;;;;7.42;67.23;94013.38;4205690;28;20619;-68
2023/11/12 02:49:18;;;;;;;6.45;3.45;;;;;;;7.42;67.04;94009.00;4200074;28;20049;-68
2023/11/12 02:51:21;;;;;;;5.72;3.40;;;;;;;7.36;67.10;94010.44;4202286;28;20451;-68
2023/11/12 02:53:24;;;;;;;8.45;3.58;;;;;;;7.33;66.98;94000.31;4210242;28;20074;-67
2023/11/12 02:55:30;;;;;;;5.38;3.30;;;;;;;7.34;67.06;94014.16;4208675;28;20044;-68
2023/11/12 02:57:32;;;;;;;5.43;3.20;;;;;;;7.31;67.70;94022.28;4212374;28;20051;-68
2023/11/12 02:59:34;;;;;;;7.18;3.35;;;;;;;7.34;67.26;94009.75;4213560;28;20052;-67
2023/11/12 03:01:36;;;;;;;3.72;3.00;;;;;;;7.34;67.03;94012.38;4211832;28;20044;-68
2023/11/12 03:03:38;;;;;;;4.43;3.00;;;;;;;7.31;66.94;94017.91;4207028;28;20052;-69
2023/11/12 03:05:40;;;;;;;4.60;3.00;;;;;;;7.34;67.41;94009.75;4210233;28;20051;-67
2023/11/12 03:07:42;;;;;;;5.60;2.95;;;;;;;7.32;67.10;94021.31;4212363;28;20048;-68
2023/11/12 03:09:45;;;;;;;5.22;2.97;;;;;;;7.19;67.63;94006.13;4206170;28;20106;-69
2023/11/12 03:11:47;;;;;;;4.57;2.90;;;;;;;7.13;67.52;94024.97;4188147;28;20048;-67
2023/11/12 03:13:51;;;;;;;5.20;2.75;;;;;;;7.16;67.93;94024.63;4204029;28;20041;-68
2023/11/12 03:15:53;;;;;;;3.38;2.67;;;;;;;7.20;67.44;94031.19;4201818;28;20060;-68
2023/11/12 03:17:54;;;;;;;4.45;3.22;;;;;;;7.05;67.73;94023.13;4209075;28;20542;-67
2023/11/12 03:19:57;;;;;;;6.03;3.30;;;;;;;7.03;67.86;94035.47;4208361;28;20079;-67
2023/11/12 03:21:58;;;;;;;4.60;3.00;;;;;;;7.05;68.18;94041.34;4196964;28;20106;-67
2023/11/12 03:24:01;;;;;;;5.97;2.70;;;;;;;6.87;68.34;94035.38;4206873;28;20048;-67
2023/11/12 03:26:03;;;;;;;3.40;2.72;;;;;;;6.88;68.44;94037.84;4197298;28;20097;-68
2023/11/12 03:28:05;;;;;;;5.25;2.80;;;;;;;6.84;68.62;94031.31;4182765;28;20048;-67
2023/11/12 03:30:09;;;;;;;5.35;3.00;;;;;;;6.93;68.48;94051.22;4197778;28;20052;-67
2023/11/12 03:32:12;;;;;;;5.57;2.92;;;;;;;6.96;68.24;94050.09;4194056;28;20049;-68
2023/11/12 03:34:15;;;;;;;5.22;2.70;;;;;;;6.72;68.77;94048.94;4181391;28;20127;-68
2023/11/12 03:36:18;;;;;;;5.22;3.03;;;;;;;6.76;69.11;94065.09;4171777;28;20049;-65
2023/11/12 03:38:21;;;;;;;5.45;3.08;;;;;;;6.83;68.90;94055.69;4204931;28;20051;-68
2023/11/12 03:40:24;;;;;;;3.85;2.42;;;;;;;6.95;68.78;94057.09;4210783;28;20048;-70
2023/11/12 03:42:26;;;;;;;3.88;2.60;;;;;;;7.05;68.48;94063.97;4204953;28;20052;-67
2023/11/12 03:44:28;;;;;;;4.00;2.70;;;;;;;7.06;67.76;94071.66;4207928;28;20048;-68
2023/11/12 03:46:29;;;;;;;4.38;2.83;;;;;;;7.03;67.72;94061.53;4203567;28;20097;-68
2023/11/12 03:48:32;;;;;;;4.28;2.80;;;;;;;7.08;67.84;94059.28;4197514;28;20495;-68
2023/11/12 03:50:34;;;;;;;6.40;2.55;;;;;;;7.13;67.57;94064.03;4209451;28;20052;-68
2023/11/12 03:52:36;;;;;;;4.32;2.78;;;;;;;7.11;67.58;94065.97;4199311;28;20368;-69
2023/11/12 03:54:38;;;;;;;4.55;2.85;;;;;;;7.08;67.76;94064.50;4193588;28;20155;-68
2023/11/12 03:56:40;;;;;;;5.68;2.90;;;;;;;7.10;67.83;94070.38;4165353;28;20048;-69
2023/11/12 03:58:42;;;;;;;4.65;2.60;;;;;;;7.16;67.81;94066.31;4200380;28;20054;-69
2023/11/12 04:00:44;;;;;;;4.35;2.55;;;;;;;7.13;67.21;94058.81;4209596;28;20126;-65
2023/11/12 04:02:48;;;;;;;3.75;2.90;;;;;;;7.04;67.25;94051.94;4203770;28;20055;-67
2023/11/12 04:04:52;;;;;;;5.78;2.42;;;;;;;7.09;67.39;94067.91;4195842;28;20060;-65
2023/11/12 04:06:54;;;;;;;6.20;2.75;;;;;;;7.10;66.90;94064.34;4190334;28;20105;-67
2023/11/12 04:08:56;;;;;;;4.57;2.97;;;;;;;6.92;66.86;94059.16;4209979;28;20049;-66
2023/11/12 04:10:57;;;;;;;4.65;2.80;;;;;;;6.87;67.67;94054.44;4198328;28;20053;-68
2023/11/12 04:13:01;;;;;;;6.97;2.95;;;;;;;6.91;67.65;94062.75;4212315;28;20044;-68
2023/11/12 04:15:04;;;;;;;4.97;2.53;;;;;;;6.92;67.24;94075.59;4211616;28;20048;-67
2023/11/12 04:17:06;;;;;;;4.05;2.85;;;;;;;6.50;68.17;94059.84;4206898;28;20469;-68
2023/11/12 04:19:08;;;;;;;9.05;3.13;;;;;;;6.60;68.56;94055.34;4204708;28;20438;-68
2023/11/12 04:21:13;;;;;;;4.88;2.85;;;;;;;6.71;68.51;94072.50;4186733;28;20041;-68
2023/11/12 04:23:16;;;;;;;7.55;3.10;;;;;;;6.83;67.77;94065.31;4179024;28;20080;-67
2023/11/12 04:25:18;;;;;;;4.47;3.03;;;;;;;6.91;67.42;94065.38;4205567;28;20044;-65
2023/11/12 04:27:21;;;;;;;4.55;2.92;;;;;;;6.98;67.61;94077.59;4203072;28;20071;-69
2023/11/12 04:29:23;;;;;;;3.83;2.90;;;;;;;7.07;67.20;94075.06;4204053;28;20494;-69
2023/11/12 04:31:26;;;;;;;5.30;3.63;;;;;;;7.12;66.96;94080.63;4205678;28;20409;-66
2023/11/12 04:33:29;;;;;;;7.72;3.30;;;;;;;7.13;66.73;94090.88;4211102;28;20253;-67
2023/11/12 04:35:31;;;;;;;4.17;2.97;;;;;;;7.08;66.52;94084.53;4207266;28;20048;-70
2023/11/12 04:37:33;;;;;;;7.18;3.30;;;;;;;7.08;66.97;94087.94;4209330;28;20161;-69
2023/11/12 04:39:35;;;;;;;6.03;3.22;;;;;;;7.14;67.17;94092.53;4182676;28;20053;-67
2023/11/12 04:41:37;;;;;;;5.25;2.97;;;;;;;7.20;66.62;94090.28;4203178;28;20060;-68
2023/11/12 04:43:42;;;;;;;8.13;3.10;;;;;;;6.89;67.44;94070.72;4201451;28;20048;-67
2023/11/12 04:45:45;;;;;;;6.20;3.10;;;;;;;6.86;67.91;94078.84;4201305;28;20123;-68
2023/11/12 04:47:47;;;;;;;7.00;3.60;;;;;;;6.95;67.44;94074.50;4188092;28;20083;-69
2023/11/12 04:49:49;;;;;;;5.97;3.67;;;;;;;7.03;67.28;94084.16;4207172;28;20052;-67
2023/11/12 04:51:51;;;;;;;5.70;3.42;;;;;;;7.12;66.96;94084.06;4192960;28;20056;-69
2023/11/12 04:53:54;;;;;;;4.68;2.95;;;;;;;7.22;66.87;94086.53;4208590;28;20059;-68
2023/11/12 04:55:56;;;;;;;4.15;3.33;;;;;;;7.27;66.99;94091.28;4188069;28;20040;-69
2023/11/12 04:58:01;;;;;;;3.75;2.97;;;;;;;7.36;66.52;94082.56;4200042;28;20045;-68
2023/11/12 05:00:06;;;;;;;4.68;3.03;;;;;;;7.42;66.49;94091.53;4195921;28;20080;-67
2023/11/12 05:02:13;;;;;;;5.40;3.05;;;;;;;7.44;65.96;94092.22;4202781;28;20082;-67
2023/11/12 05:04:16;;;;;;;4.10;2.90;;;;;;;7.02;67.20;94091.16;4192550;28;20041;-70
2023/11/12 05:06:18;;;;;;;4.18;3.00;;;;;;;7.04;67.63;94106.63;4194609;28;20048;-68
2023/11/12 05:08:23;;;;;;;6.30;3.20;;;;;;;7.06;67.14;94091.66;4208660;28;20078;-69
2023/11/12 05:10:24;;;;;;;7.93;3.33;;;;;;;7.15;66.78;94086.34;4191649;28;20068;-69
2023/11/12 05:12:46;;;;;;;7.43;3.25;;;;;;;7.16;66.58;94074.97;4195150;28;20765;-71
2023/11/12 05:14:48;;;;;;;5.15;3.42;;;;;;;7.25;66.70;94090.63;4193149;28;20041;-67
2023/11/12 05:16:50;;;;;;;6.55;3.55;;;;;;;6.97;67.32;94098.59;4185590;28;20506;-68
2023/11/12 05:18:52;;;;;;;9.43;3.67;;;;;;;7.03;67.75;94104.97;4205455;28;20055;-68
2023/11/12 05:20:56;;;;;;;;;;;;;;;7.08;67.45;94108.78;4185760;28;20131;-69
2023/11/12 05:22:59;;;;;;;8.57;3.58;;;;;;;7.10;67.06;94095.63;4184561;28;19928;-67
2023/11/12 05:25:00;;;;;;;6.30;3.38;;;;;;;7.09;67.33;94106.97;4177065;28;20079;-70
2023/11/12 05:27:02;;;;;;;7.22;3.63;;;;;;;7.17;66.98;94109.66;4189657;28;20375;-69
2023/11/12 05:29:04;;;;;;;5.55;3.60;;;;;;;7.20;67.18;94108.53;4185150;28;20075;-68
2023/11/12 05:31:07;;;;;;;5.50;3.35;;;;;;;6.93;67.10;94126.72;4200087;28;20056;-69
2023/11/12 05:33:08;;;;;;;4.47;3.30;;;;;;;6.79;67.86;94121.25;4207142;28;20062;-69
2023/11/12 05:35:10;;;;;;;8.85;3.50;;;;;;;6.72;68.15;94121.84;4192415;28;20106;-69
2023/11/12 05:37:12;;;;;;;8.60;4.10;;;;;;;6.74;68.42;94125.09;4210668;28;20052;-69
2023/11/12 05:39:15;;;;;;;7.35;3.63;;;;;;;6.83;68.11;94130.38;4208473;28;20051;-70
2023/11/12 05:41:17;;;;;;;7.80;3.40;;;;;;;6.98;68.33;94140.09;4180747;28;20127;-70
2023/11/12 05:43:20;;;;;;;4.65;3.40;;;;;;;7.12;67.46;94143.13;4185470;28;20117;-70
2023/11/12 05:45:21;;;;;;;5.50;3.72;;;;;;;7.18;66.63;94143.38;4211264;28;20059;-70
2023/11/12 05:47:23;;;;;;;4.28;3.10;;;;;;;7.28;66.47;94155.47;4202749;28;20053;-70
2023/11/12 05:49:27;;;;;;;8.38;3.50;;;;;;;7.32;66.20;94160.22;4191669;28;20044;-69
2023/11/12 05:51:28;;;;;;;5.28;3.90;;;;;;;7.35;66.51;94157.31;4210914;28;20153;-69
2023/11/12 05:53:32;;;;;;;5.82;3.70;;;;;;;7.37;66.28;94163.19;4189968;28;20123;-68
2023/11/12 05:55:33;;;;;;;5.63;3.60;;;;;;;7.45;66.33;94164.22;4211514;28;20475;-69
2023/11/12 05:57:36;;;;;;;4.53;3.45;;;;;;;7.51;66.16;94174.03;4193204;28;20078;-70
2023/11/12 05:59:38;;;;;;;5.65;3.58;;;;;;;7.57;66.18;94171.63;4208691;28;20051;-71
2023/11/12 06:01:41;;;;;;;5.97;4.05;;;;;;;7.65;66.17;94172.66;4199680;28;20457;-71
2023/11/12 06:03:43;;;;;;;6.10;3.50;;;;;;;7.63;66.26;94172.78;4196392;28;20388;-69
2023/11/12 06:05:45;;;;;;;7.55;3.50;;;;;;;7.69;65.80;94182.59;4197343;28;20526;-70
2023/11/12 06:07:47;;;;;;;7.78;3.80;;;;;;;7.75;65.32;94189.81;4196814;28;20135;-69
2023/11/12 06:09:49;;;;;;;5.70;3.30;;;;;;;7.76;65.00;94194.06;4200781;28;20051;-70
2023/11/12 06:11:53;;;;;;;5.60;3.90;;;;;;;7.80;64.77;94200.59;4214739;28;20439;-68
2023/11/12 06:13:55;;;;;;;;;;;;;;;7.50;65.93;94191.44;4213410;28;20067;-70
2023/11/12 06:15:57;;;;;;;10.50;4.20;;;;;;;7.33;66.10;94198.31;4196058;28;19939;-68
2023/11/12 06:17:59;;;;;;;5.22;4.03;;;;;;;7.42;66.75;94209.66;4200475;28;20418;-68
2023/11/12 06:20:03;;;;;;;5.95;3.20;;;;;;;7.55;66.00;94212.69;4218443;28;20374;-69
2023/11/12 06:22:05;;;;;;;;;;;;;;;7.69;66.02;94216.50;4204989;28;20453;-70
2023/11/12 06:24:07;;;;;;;5.82;3.72;;;;;;;7.82;65.68;94207.47;4182153;28;19920;-67
2023/11/12 06:26:10;;;;;;;5.13;3.50;;;;;;;7.96;64.22;94219.94;4183043;28;20063;-71
2023/11/12 06:28:12;;;;;;;5.65;3.63;;;;;;;8.04;64.53;94217.34;4210371;28;20418;-70
2023/11/12 06:30:14;;;;;;;5.05;3.63;;;;;;;8.11;64.78;94217.53;4213434;28;20121;-70
2023/11/12 06:32:16;;;;;;;6.43;3.33;;;;;;;8.17;64.89;94215.16;4211665;28;20067;-71
2023/11/12 06:34:19;;;;;;;7.25;4.10;;;;;;;8.24;64.32;94223.19;4195334;28;20084;-70
2023/11/12 06:36:21;;;;;;;6.93;3.60;;;;;;;8.27;63.83;94225.47;4208983;28;20436;-70
2023/11/12 06:38:23;;;;;;;5.68;4.13;;;;;;;8.30;63.70;94222.56;4195615;28;20529;-70
2023/11/12 06:40:25;;;;;;;7.93;4.00;;;;;;;8.34;63.21;94217.81;4186112;28;20053;-70
2023/11/12 06:42:27;;;;;;;6.43;4.00;;;;;;;8.27;63.71;94214.22;4209628;28;20518;-69
2023/11/12 06:44:29;;;;;;;9.55;4.45;;;;;;;8.33;63.36;94230.06;4183898;28;20053;-71
2023/11/12 06:46:31;;;;;;;12.10;5.88;;;;;;;8.36;64.15;94236.75;4200329;28;20436;-69
2023/11/12 06:48:34;;;;;;;8.07;5.03;;;;;;;8.44;63.49;94239.44;4183423;28;20044;-69
2023/11/12 06:50:35;;;;;;;8.02;5.63;;;;;;;8.52;63.06;94226.41;4191613;28;20135;-68
2023/11/12 06:52:37;;;;;;;10.98;6.55;;;;;;;8.55;63.18;94235.72;4199250;28;20079;-68
2023/11/12 06:54:41;;;;;;;8.38;4.63;;;;;;;8.54;62.63;94255.78;4205500;28;20091;-70
2023/11/12 06:56:43;;;;;;;8.98;4.72;;;;;;;8.64;62.53;94257.44;4210314;28;20066;-70
2023/11/12 06:58:45;;;;;;;7.65;5.50;;;;;;;8.71;62.82;94237.56;4201697;28;20044;-72
2023/11/12 07:00:47;;;;;;;9.07;4.72;;;;;;;8.78;62.38;94247.22;4210246;28;20045;-71
2023/11/12 07:02:49;;;;;;;5.65;4.18;;;;;;;8.81;62.72;94253.91;4204617;28;20464;-71
2023/11/12 07:04:52;;;;;;;7.10;4.40;;;;;;;8.82;62.64;94255.56;4211802;28;20048;-70
2023/11/12 07:06:56;;;;;;;10.18;6.68;;;;;;;8.90;62.51;94255.56;4203822;28;20127;-71
2023/11/12 07:09:15;;;;;;;11.35;5.60;;;;;;;8.98;62.56;94260.00;4187312;28;20106;-69
2023/11/12 07:11:19;;;;;;;10.52;5.50;;;;;;;9.05;62.46;94265.41;4213856;28;20410;-70
2023/11/12 07:13:20;;;;;;;12.43;6.20;;;;;;;9.11;61.91;94259.53;4194094;28;20076;-69
2023/11/12 07:15:22;;;;;;;12.90;5.40;;;;;;;9.10;61.55;94258.72;4208286;28;20050;-70
2023/11/12 07:17:25;;;;;;;9.07;5.88;;;;;;;9.10;61.56;94260.50;4180863;28;20041;-70
2023/11/12 07:19:28;;;;;;;9.60;5.30;;;;;;;9.08;62.09;94258.06;4204512;28;20052;-70
2023/11/12 07:21:31;;;;;;;11.05;5.53;;;;;;;9.16;61.68;94263.31;4201850;28;20052;-71
2023/11/12 07:23:33;;;;;;;9.35;4.53;;;;;;;9.20;62.00;94267.22;4201102;28;20051;-71
2023/11/12 07:25:35;;;;;;;10.20;6.07;;;;;;;9.24;61.69;94278.16;4192388;28;20052;-70
2023/11/12 07:27:37;;;;;;;13.43;6.18;;;;;;;9.26;61.25;94265.75;4180346;28;20369;-69
2023/11/12 07:29:39;;;;;;;7.78;5.03;;;;;;;9.28;61.82;94279.50;4203748;28;20056;-71
2023/11/12 07:31:42;;;;;;;6.25;4.00;;;;;;;9.30;61.06;94269.69;4203951;28;20418;-71
2023/11/12 07:33:46;;;;;;;12.32;3.78;;;;;;;9.33;60.90;94277.19;4212100;28;20091;-72
2023/11/12 07:35:49;;;;;;;5.50;3.80;;;;;;;9.35;61.23;94277.03;4212646;28;20080;-72
2023/11/12 07:37:53;;;;;;;6.43;4.18;;;;;;;9.37;60.46;94273.28;4187745;28;20051;-71
2023/11/12 07:39:57;;;;;;;8.93;4.60;;;;;;;9.43;61.17;94272.63;4190942;28;20140;-71
2023/11/12 07:42:01;;;;;;;7.75;3.70;;;;;;;9.53;61.55;94271.66;4205742;28;20427;-71
2023/11/12 07:44:03;;;;;;;5.53;3.30;;;;;;;9.55;60.87;94270.53;4205647;28;20070;-70
2023/11/12 07:46:05;;;;;;;5.72;3.70;;;;;;;9.55;60.63;94267.09;4188958;28;20095;-70
2023/11/12 07:48:08;;;;;;;5.80;3.05;;;;;;;9.56;60.34;94256.47;4203194;28;20140;-70
2023/11/12 07:50:11;;;;;;;7.63;3.67;;;;;;;9.53;60.47;94248.13;4205128;28;20121;-69
2023/11/12 07:52:13;;;;;;;9.98;3.40;;;;;;;9.50;60.20;94254.50;4193663;28;20443;-71
2023/11/12 07:54:15;;;;;;;8.52;3.88;;;;;;;9.51;60.06;94257.94;4208232;28;20056;-69
2023/11/12 07:56:17;;;;;;;5.35;3.53;;;;;;;9.41;59.84;94258.09;4209978;28;20055;-72
2023/11/12 07:58:21;;;;;;;6.20;3.08;;;;;;;9.42;60.07;94262.34;4203360;28;20055;-70
2023/11/12 08:00:23;;;;;;;6.47;3.40;;;;;;;9.43;60.20;94261.38;4190755;28;20132;-72
2023/11/12 08:02:26;;;;;;;5.68;2.75;;;;;;;9.48;60.10;94266.09;4200219;28;20084;-68
2023/11/12 08:04:29;;;;;;;3.95;2.65;;;;;;;9.46;60.11;94281.13;4208163;28;20071;-69
2023/11/12 08:06:34;;;;;;;6.87;3.37;;;;;;;9.32;59.01;94275.56;4178812;28;20376;-72
2023/11/12 08:08:36;;;;;;;5.88;3.33;;;;;;;8.65;61.32;94269.50;4181381;28;20053;-70
2023/11/12 08:10:39;;;;;;;6.38;3.60;;;;;;;8.45;63.15;94276.78;4178454;28;20047;-68
2023/11/12 08:12:43;;;;;;;8.20;3.80;;;;;;;8.57;63.26;94276.34;4185682;28;20489;-69
2023/11/12 08:14:45;;;;;;;7.25;4.22;;;;;;;8.51;63.63;94274.38;4185292;28;20059;-68
2023/11/12 08:16:47;;;;;;;8.73;4.75;;;;;;;8.60;62.81;94281.28;4189294;28;20166;-70
2023/11/12 08:18:49;;;;;;;5.93;4.00;;;;;;;8.74;62.42;94279.03;4209288;28;20189;-71
2023/11/12 08:20:56;;;;;;;9.00;4.22;;;;;;;8.76;62.34;94284.91;4212239;28;20052;-69
2023/11/12 08:23:00;;;;;;;7.60;4.28;;;;;;;8.36;63.56;94286.34;4211194;28;20075;-71
2023/11/12 08:25:02;;;;;;;11.80;5.47;;;;;;;8.39;63.71;94291.25;4199853;28;20510;-71
2023/11/12 08:27:04;;;;;;;10.07;4.78;;;;;;;8.32;63.45;94290.22;4212460;28;20131;-71
2023/11/12 08:29:06;;;;;;;10.55;4.50;;;;;;;8.33;63.62;94289.28;4212623;28;20051;-70
2023/11/12 08:31:08;;;;;;;9.75;4.93;;;;;;;8.22;64.34;94298.19;4181072;28;20084;-70
2023/11/12 08:33:11;;;;;;;10.80;5.45;;;;;;;8.41;64.11;94297.19;4201522;28;20193;-70
2023/11/12 08:35:13;;;;;;;10.02;5.05;;;;;;;8.52;63.59;94298.69;4204083;28;20103;-71
2023/11/12 08:37:15;;;;;;;27.15;12.50;;;;;;;8.54;63.07;94291.50;4211341;28;20094;-72
2023/11/12 08:39:17;;;;;;;21.15;13.90;;;;;;;8.56;63.24;94294.78;4206617;28;20109;-71
2023/11/12 08:41:20;;;;;;;17.90;10.38;;;;;;;8.68;63.06;94290.09;4226969;28;20044;-72
2023/11/12 08:43:24;;;;;;;11.82;8.13;;;;;;;8.81;62.78;94287.88;4211634;28;20445;-69
2023/11/12 08:45:26;;;;;;;16.10;6.78;;;;;;;8.93;62.22;94280.56;4206915;28;20049;-71
2023/11/12 08:47:28;;;;;;;11.27;6.35;;;;;;;9.11;62.14;94283.88;4195779;28;20076;-71
2023/11/12 08:49:33;;;;;;;25.98;12.00;;;;;;;9.25;62.24;94287.66;4211631;28;20471;-72
2023/11/12 08:51:36;;;;;;;19.02;10.57;;;;;;;9.39;61.70;94276.56;4211864;28;20135;-71
2023/11/12 08:53:39;;;;;;;21.55;8.88;;;;;;;9.55;61.33;94280.16;4203902;28;20149;-71
2023/11/12 08:55:43;;;;;;;17.17;6.40;;;;;;;9.64;59.79;94282.63;4195817;28;20479;-69
2023/11/12 08:57:45;;;;;;;12.70;6.45;;;;;;;9.76;59.85;94279.66;4208780;28;20122;-70
2023/11/12 08:59:47;;;;;;;12.15;6.53;;;;;;;9.81;59.78;94278.22;4211968;28;20082;-71
2023/11/12 09:01:50;;;;;;;11.25;5.45;;;;;;;9.88;59.10;94286.22;4209148;28;20091;-71
2023/11/12 09:03:53;;;;;;;12.90;6.35;;;;;;;9.96;58.99;94286.22;4212744;28;20496;-69
2023/11/12 09:05:55;;;;;;;11.00;5.15;;;;;;;9.99;58.21;94282.44;4224021;28;20047;-71
2023/11/12 09:07:57;;;;;;;20.48;9.45;;;;;;;10.03;58.02;94284.56;4199083;28;20410;-71
2023/11/12 09:09:59;;;;;;;8.07;5.10;;;;;;;10.04;58.29;94280.13;4206857;28;20051;-71
2023/11/12 09:12:01;;;;;;;11.50;5.75;;;;;;;10.04;58.36;94283.59;4204169;28;20127;-71
2023/11/12 09:14:06;;;;;;;11.60;5.50;;;;;;;10.09;58.17;94277.00;4207998;28;20387;-72
2023/11/12 09:16:08;;;;;;;12.75;6.88;;;;;;;10.17;58.67;94280.44;4213654;28;20505;-69
2023/11/12 09:18:10;;;;;;;10.40;6.82;;;;;;;10.25;58.44;94283.03;4199453;28;20418;-67
2023/11/12 09:20:15;;;;;;;13.32;6.93;;;;;;;10.31;58.85;94275.56;4207882;28;20135;-72
2023/11/12 09:22:17;;;;;;;10.93;7.20;;;;;;;10.37;59.05;94270.47;4206064;28;20044;-70
2023/11/12 09:24:21;;;;;;;12.23;6.97;;;;;;;10.42;58.97;94280.41;4212144;28;20113;-70
2023/11/12 09:26:23;;;;;;;12.20;5.78;;;;;;;10.47;58.49;94272.06;4208628;28;20414;-70
2023/11/12 09:28:25;;;;;;;19.30;5.95;;;;;;;10.49;58.22;94272.72;4226471;28;20052;-70
2023/11/12 09:30:31;;;;;;;10.55;5.25;;;;;;;10.31;57.13;94263.28;4189645;28;20044;-72
2023/11/12 09:32:53;;;;;;;8.70;5.05;;;;;;;10.10;57.88;94274.25;4214620;28;20064;-71
2023/11/12 09:34:56;;;;;;;10.63;5.90;;;;;;;10.14;58.46;94270.31;4207623;28;20624;-72
2023/11/12 09:36:57;;;;;;;10.75;5.85;;;;;;;10.22;58.08;94272.91;4209058;28;20410;-71
2023/11/12 09:39:00;;;;;;;11.55;5.60;;;;;;;10.19;58.66;94259.34;4208711;28;20052;-71
2023/11/12 09:41:04;;;;;;;9.10;5.65;;;;;;;10.27;59.21;94261.13;4211380;28;20577;-70
2023/11/12 09:43:06;;;;;;;12.25;5.97;;;;;;;10.37;59.00;94261.78;4213919;28;20056;-72
2023/11/12 09:45:10;;;;;;;10.23;6.60;;;;;;;10.38;58.84;94258.97;4213187;28;20051;-71